Uraga Maru — JD2163 — position and weather

sailwx.info

Track history (hours):
 
Tides and Currents Weather Stations Pressure Air Temp Water Temp Dewpoint Dewpoint Depression Visibility Wind Speed Wind Dir Waves Ship Positions

Uraga Maru

Last reported at 2017-Jan-24 04:32 UTC. Time now 2017-Jan-24 05:10 UTC.
Position N 35°17' E 139°44'.

Length 40 m; draft 2.8 m.

Type: Tug. MMSI: 431101119.

Date/timePositionNaut miles runAvg speedWind from/ knotsBaromVisibWave heightAir tempDewpointWater temp
2017-Jan-24 04:32N 35°17' E 139°44'1 0.7
2017-Jan-24 03:33N 35°18' E 139°44'1111.2
2017-Jan-24 02:33N 35°28' E 139°49'7 6.9
2017-Jan-24 01:33N 35°29' E 139°58'4 4.1
2017-Jan-24 00:32N 35°29' E 139°53'8 8.3
2017-Jan-23 23:33N 35°23' E 139°46'1111.2
2017-Jan-23 22:33N 35°12' E 139°47'6 5.9
2017-Jan-23 21:32N 35°17' E 139°44'3 2.8
2017-Jan-23 20:33N 35°17' E 139°41'0 0.0
2017-Jan-23 19:33N 35°17' E 139°41'0 0.0
2017-Jan-23 18:33N 35°17' E 139°41'0 0.0
2017-Jan-23 17:33N 35°17' E 139°41'0 0.0
2017-Jan-23 16:33N 35°17' E 139°41'0 0.0
2017-Jan-23 15:33N 35°17' E 139°41'0 0.0
2017-Jan-23 14:33N 35°17' E 139°41'0 0.0
2017-Jan-23 13:33N 35°17' E 139°41'0 0.0
2017-Jan-23 12:33N 35°17' E 139°41'0 0.0
2017-Jan-23 11:33N 35°17' E 139°41'0 0.0
2017-Jan-23 10:33N 35°17' E 139°41'0 0.0
2017-Jan-23 09:33N 35°17' E 139°41'0 0.0
2017-Jan-23 08:33N 35°17' E 139°41'0 0.0
2017-Jan-23 07:33N 35°17' E 139°41'0 0.0
2017-Jan-23 06:33N 35°17' E 139°41'0 0.0
2017-Jan-23 05:33N 35°17' E 139°41'0 0.0
2017-Jan-23 04:33N 35°17' E 139°41'0 0.0
2017-Jan-23 03:33N 35°17' E 139°41'6 5.6
2017-Jan-23 02:34N 35°23' E 139°42'5 4.5
2017-Jan-23 01:32N 35°18' E 139°44'6 3.1
2017-Jan-22 23:31N 35°12' E 139°46'8 4.0
2017-Jan-22 21:34N 35°19' E 139°41'2 1.7
2017-Jan-22 20:34N 35°17' E 139°41'0 0.0
2017-Jan-22 19:33N 35°17' E 139°41'0 0.0
2017-Jan-22 18:34N 35°17' E 139°41'0 0.0
2017-Jan-22 17:34N 35°17' E 139°41'0 0.0
2017-Jan-22 16:34N 35°17' E 139°41'0 0.0
2017-Jan-22 15:34N 35°17' E 139°41'0 0.0
2017-Jan-22 14:34N 35°17' E 139°41'0 0.0
2017-Jan-22 13:34N 35°17' E 139°41'0 0.0
2017-Jan-22 12:34N 35°17' E 139°41'0 0.0
2017-Jan-22 11:33N 35°17' E 139°41'0 0.0
2017-Jan-22 10:34N 35°17' E 139°41'0 0.0
2017-Jan-22 09:33N 35°17' E 139°41'0 0.0
2017-Jan-22 08:34N 35°17' E 139°41'0 0.0
2017-Jan-22 07:33N 35°17' E 139°41'0 0.0
2017-Jan-22 06:33N 35°17' E 139°41'0 0.0
2017-Jan-22 05:34N 35°17' E 139°41'0 0.0
2017-Jan-22 04:33N 35°17' E 139°41'0 0.0
2017-Jan-22 03:34N 35°17' E 139°41'6 6.4
2017-Jan-22 02:34N 35°22' E 139°45'3 2.9
2017-Jan-22 01:33N 35°20' E 139°44'4 3.6
2017-Jan-22 00:28N 35°17' E 139°41'0 0.0
2017-Jan-21 23:33N 35°17' E 139°41'0 0.0
2017-Jan-21 22:33N 35°17' E 139°41'0 0.0
2017-Jan-21 21:33N 35°17' E 139°41'0 0.0
2017-Jan-21 20:33N 35°17' E 139°41'0 0.0
2017-Jan-21 19:33N 35°17' E 139°41'0 0.0
2017-Jan-21 18:32N 35°17' E 139°41'0 0.0
2017-Jan-21 17:34N 35°17' E 139°41'0 0.0
2017-Jan-21 16:34N 35°17' E 139°41'0 0.0
2017-Jan-21 15:34N 35°17' E 139°41'0 0.0
2017-Jan-21 14:33N 35°17' E 139°41'0 0.0
2017-Jan-21 13:34N 35°17' E 139°41'0 0.0
2017-Jan-21 12:34N 35°17' E 139°41'0 0.0
2017-Jan-21 11:33N 35°17' E 139°41'0 0.0
2017-Jan-21 10:34N 35°17' E 139°41'0 0.0
2017-Jan-21 09:33N 35°17' E 139°41'0 0.0
2017-Jan-21 08:32N 35°17' E 139°41'0 0.0
2017-Jan-21 07:32N 35°17' E 139°41'0 0.0
2017-Jan-21 06:33N 35°17' E 139°41'0 0.0
2017-Jan-21 05:26N 35°17' E 139°41'0 0.0
2017-Jan-21 04:29N 35°17' E 139°41'0 0.0
2017-Jan-21 03:34N 35°17' E 139°41'0 0.0
2017-Jan-21 02:34N 35°17' E 139°41'0 0.0
2017-Jan-21 01:34N 35°17' E 139°41'0 0.0
2017-Jan-21 00:33N 35°17' E 139°41'2 2.4
2017-Jan-20 23:33N 35°19' E 139°41'1 1.1
2017-Jan-20 22:34N 35°19' E 139°40'7 7.2
2017-Jan-20 21:33N 35°13' E 139°46'10 9.9
2017-Jan-20 20:34N 35°23' E 139°41'2 2.4
2017-Jan-20 19:33N 35°20' E 139°42'3 2.9
2017-Jan-20 18:27N 35°17' E 139°41'0 0.0
2017-Jan-20 17:29N 35°17' E 139°41'0 0.0
2017-Jan-20 16:33N 35°17' E 139°41'0 0.0
2017-Jan-20 15:32N 35°17' E 139°41'0 0.0
2017-Jan-20 14:33N 35°17' E 139°41'0 0.0
2017-Jan-20 13:33N 35°17' E 139°41'0 0.0
2017-Jan-20 12:33N 35°17' E 139°41'0 0.0
2017-Jan-20 11:17N 35°17' E 139°41'0 0.0
2017-Jan-20 10:34N 35°17' E 139°41'6 5.4
2017-Jan-20 09:30N 35°13' E 139°46'9 9.2
2017-Jan-20 08:34N 35°21' E 139°42'5 5.0
2017-Jan-20 07:33N 35°26' E 139°42'5 4.8
2017-Jan-20 06:33N 35°22' E 139°45'6 2.9
2017-Jan-20 04:32N 35°17' E 139°42'1 0.8
2017-Jan-20 03:26N 35°17' E 139°41'0 0.0
2017-Jan-20 02:27N 35°17' E 139°41'0 0.0
2017-Jan-20 01:31N 35°17' E 139°41'0 0.0
2017-Jan-20 00:31N 35°17' E 139°41'0 0.0
2017-Jan-19 23:14N 35°17' E 139°41'0 0.0
2017-Jan-19 22:33N 35°17' E 139°41'0 0.0
2017-Jan-19 21:33N 35°17' E 139°41'0 0.0
2017-Jan-19 20:33N 35°17' E 139°41'0 0.0
2017-Jan-19 19:33N 35°17' E 139°41'0 0.0
2017-Jan-19 18:33N 35°17' E 139°41'0 0.0
2017-Jan-19 17:33N 35°17' E 139°41'0 0.0
2017-Jan-19 16:33N 35°17' E 139°41'0 0.0
2017-Jan-19 15:33N 35°17' E 139°41'0 0.0
2017-Jan-19 14:33N 35°17' E 139°41'0 0.0
2017-Jan-19 13:33N 35°17' E 139°41'0 0.0
2017-Jan-19 12:33N 35°17' E 139°41'0 0.0
2017-Jan-19 11:33N 35°17' E 139°41'0 0.0
2017-Jan-19 10:33N 35°17' E 139°41'0 0.0
2017-Jan-19 09:33N 35°17' E 139°41'0 0.0
2017-Jan-19 08:33N 35°17' E 139°41'0 0.0
2017-Jan-19 07:33N 35°17' E 139°41'0 0.0
2017-Jan-19 06:33N 35°17' E 139°41'0 0.0
2017-Jan-19 05:33N 35°17' E 139°41'0 0.0
2017-Jan-19 04:33N 35°17' E 139°41'0 0.0
2017-Jan-19 03:33N 35°17' E 139°41'6 5.6
2017-Jan-19 02:33N 35°14' E 139°46'1110.7
2017-Jan-19 01:33N 35°24' E 139°43'4 3.9
2017-Jan-19 00:33N 35°28' E 139°44'1 0.7
2017-Jan-18 23:33N 35°28' E 139°44'0 0.0
2017-Jan-18 22:33N 35°28' E 139°44'1110.8
2017-Jan-18 21:33N 35°17' E 139°45'3 2.6
2017-Jan-18 20:17N 35°14' E 139°46'5 7.2
2017-Jan-18 19:33N 35°17' E 139°41'0 0.0
2017-Jan-18 18:33N 35°17' E 139°41'0 0.0
2017-Jan-18 17:33N 35°17' E 139°41'0 0.0
2017-Jan-18 16:33N 35°17' E 139°41'0 0.0
2017-Jan-18 15:33N 35°17' E 139°41'0 0.0
2017-Jan-18 14:33N 35°17' E 139°41'0 0.0
2017-Jan-18 13:33N 35°17' E 139°41'0 0.0
2017-Jan-18 12:33N 35°17' E 139°41'8 8.2
2017-Jan-18 11:33N 35°24' E 139°46'7 6.7
2017-Jan-18 10:33N 35°17' E 139°45'5 1.1
2017-Jan-18 06:31N 35°13' E 139°43'6 6.1
2017-Jan-18 05:33N 35°19' E 139°43'3 3.4
2017-Jan-18 04:33N 35°22' E 139°41'8 8.2
2017-Jan-18 03:33N 35°15' E 139°46'1010.3
2017-Jan-18 02:33N 35°24' E 139°40'2 1.8
2017-Jan-18 01:34N 35°24' E 139°38'0 0.1
2017-Jan-18 00:33N 35°24' E 139°38'7 7.1
2017-Jan-17 23:33N 35°17' E 139°41'0 0.2
2017-Jan-17 22:33N 35°17' E 139°41'0 0.0
2017-Jan-17 21:33N 35°17' E 139°41'0 0.0
2017-Jan-17 20:33N 35°17' E 139°41'0 0.0
2017-Jan-17 19:33N 35°17' E 139°41'0 0.0
2017-Jan-17 18:33N 35°17' E 139°41'0 0.0
2017-Jan-17 17:33N 35°17' E 139°41'0 0.0
2017-Jan-17 16:33N 35°17' E 139°41'0 0.0
2017-Jan-17 15:33N 35°17' E 139°41'0 0.0
2017-Jan-17 14:33N 35°17' E 139°41'0 0.0
2017-Jan-17 13:33N 35°17' E 139°41'0 0.0
2017-Jan-17 12:33N 35°17' E 139°41'0 0.0
2017-Jan-17 11:33N 35°17' E 139°41'0 0.0
2017-Jan-17 10:33N 35°17' E 139°41'0 0.0
2017-Jan-17 09:33N 35°17' E 139°41'0 0.0
2017-Jan-17 08:33N 35°17' E 139°41'0 0.0
2017-Jan-17 07:33N 35°17' E 139°41'0 0.0
2017-Jan-17 06:32N 35°17' E 139°41'0 0.0
2017-Jan-17 05:32N 35°17' E 139°41'7 7.4
2017-Jan-17 04:33N 35°23' E 139°46'9 8.9
2017-Jan-17 03:34N 35°14' E 139°47'1 0.8
2017-Jan-17 02:16N 35°14' E 139°46'710.3
2017-Jan-17 01:33N 35°21' E 139°42'8 2.6
2017-Jan-16 22:33N 35°13' E 139°43'3 2.6
2017-Jan-16 21:29N 35°14' E 139°46'1010.6
2017-Jan-16 20:33N 35°23' E 139°42'6 5.9
2017-Jan-16 19:32N 35°17' E 139°41'0 0.0
2017-Jan-16 18:30N 35°17' E 139°41'0 0.0
2017-Jan-16 17:33N 35°17' E 139°41'0 0.0
2017-Jan-16 16:30N 35°17' E 139°41'0 0.0
2017-Jan-16 15:33N 35°17' E 139°41'0 0.0
2017-Jan-16 14:32N 35°17' E 139°41'0 0.0
2017-Jan-16 13:09N 35°17' E 139°41'0 0.0
2017-Jan-16 12:32N 35°17' E 139°41'0 0.0
2017-Jan-16 11:14N 35°17' E 139°41'0 0.0
2017-Jan-16 10:27N 35°17' E 139°41'2 1.9
2017-Jan-16 09:33N 35°18' E 139°43'4 2.1
2017-Jan-16 07:33N 35°13' E 139°43'7 6.8
2017-Jan-16 06:33N 35°20' E 139°42'6 5.5
2017-Jan-16 05:33N 35°23' E 139°48'1 1.5
2017-Jan-16 04:33N 35°21' E 139°49'7 6.7
2017-Jan-16 03:34N 35°22' E 139°41'0 0.1
2017-Jan-16 02:33N 35°21' E 139°41'1310.1
2017-Jan-16 01:17N 35°09' E 139°46'9 9.2
2017-Jan-16 00:20N 35°18' E 139°43'2 2.7
2017-Jan-15 23:33N 35°17' E 139°41'0 0.0
2017-Jan-15 22:33N 35°17' E 139°41'0 0.0
2017-Jan-15 21:33N 35°17' E 139°41'0 0.0
2017-Jan-15 20:33N 35°17' E 139°41'0 0.0
2017-Jan-15 19:32N 35°17' E 139°41'0 0.0
2017-Jan-15 18:33N 35°17' E 139°41'0 0.0
2017-Jan-15 17:33N 35°17' E 139°41'0 0.0
2017-Jan-15 16:33N 35°17' E 139°41'0 0.0
2017-Jan-15 15:33N 35°17' E 139°41'0 0.0
2017-Jan-15 14:33N 35°17' E 139°41'0 0.0
2017-Jan-15 13:33N 35°17' E 139°41'0 0.0
2017-Jan-15 12:33N 35°17' E 139°41'0 0.0
2017-Jan-15 11:33N 35°17' E 139°41'0 0.0
2017-Jan-15 10:33N 35°17' E 139°41'0 0.0
2017-Jan-15 09:33N 35°17' E 139°41'0 0.0
2017-Jan-15 08:33N 35°17' E 139°41'0 0.0
2017-Jan-15 07:33N 35°17' E 139°41'0 0.0
2017-Jan-15 06:33N 35°17' E 139°41'0 0.0
2017-Jan-15 05:33N 35°17' E 139°41'0 0.0
2017-Jan-15 04:33N 35°17' E 139°41'6 5.6
2017-Jan-15 03:33N 35°22' E 139°43'6 6.4
2017-Jan-15 02:33N 35°16' E 139°46'4 3.3
2017-Jan-15 01:26N 35°13' E 139°43'0 0.3
2017-Jan-15 00:32N 35°13' E 139°43'3 2.8
2017-Jan-14 23:31N 35°13' E 139°46'1111.7
2017-Jan-14 22:34N 35°24' E 139°43'4 3.8
2017-Jan-14 21:34N 35°28' E 139°45'7 6.9
2017-Jan-14 20:34N 35°21' E 139°41'4 4.1
2017-Jan-14 19:29N 35°17' E 139°41'0 0.0
2017-Jan-14 17:33N 35°17' E 139°41'0 0.0
2017-Jan-14 16:23N 35°17' E 139°41'0 0.0
2017-Jan-14 15:26N 35°17' E 139°41'0 0.0
2017-Jan-14 10:13N 35°17' E 139°41'6 9.3
2017-Jan-14 09:34N 35°23' E 139°42'5 5.4
2017-Jan-14 08:33N 35°18' E 139°45'6 5.3
2017-Jan-14 07:22N 35°12' E 139°47'810.5
2017-Jan-14 06:33N 35°20' E 139°43'5 5.3
2017-Jan-14 05:33N 35°22' E 139°49'1 0.5
2017-Jan-14 04:33N 35°21' E 139°49'  
Track history (hours):
 
Tides and Currents Weather Stations Pressure Air Temp Water Temp Dewpoint Dewpoint Depression Visibility Wind Speed Wind Dir Waves Ship Positions

Uraga Maru

Last reported at 2017-Jan-24 04:32 UTC. Time now 2017-Jan-24 05:10 UTC.
Position N 35°17' E 139°44'.

Length 40 m; draft 2.8 m.

Type: Tug. MMSI: 431101119.

Date/timePositionNaut miles runAvg speedWind from/ knotsBaromVisibWave heightAir tempDewpointWater temp
2017-Jan-24 04:32N 35°17' E 139°44'1 0.7
2017-Jan-24 03:33N 35°18' E 139°44'1111.2
2017-Jan-24 02:33N 35°28' E 139°49'7 6.9
2017-Jan-24 01:33N 35°29' E 139°58'4 4.1
2017-Jan-24 00:32N 35°29' E 139°53'8 8.3
2017-Jan-23 23:33N 35°23' E 139°46'1111.2
2017-Jan-23 22:33N 35°12' E 139°47'6 5.9
2017-Jan-23 21:32N 35°17' E 139°44'3 2.8
2017-Jan-23 20:33N 35°17' E 139°41'0 0.0
2017-Jan-23 19:33N 35°17' E 139°41'0 0.0
2017-Jan-23 18:33N 35°17' E 139°41'0 0.0
2017-Jan-23 17:33N 35°17' E 139°41'0 0.0
2017-Jan-23 16:33N 35°17' E 139°41'0 0.0
2017-Jan-23 15:33N 35°17' E 139°41'0 0.0
2017-Jan-23 14:33N 35°17' E 139°41'0 0.0
2017-Jan-23 13:33N 35°17' E 139°41'0 0.0
2017-Jan-23 12:33N 35°17' E 139°41'0 0.0
2017-Jan-23 11:33N 35°17' E 139°41'0 0.0
2017-Jan-23 10:33N 35°17' E 139°41'0 0.0
2017-Jan-23 09:33N 35°17' E 139°41'0 0.0
2017-Jan-23 08:33N 35°17' E 139°41'0 0.0
2017-Jan-23 07:33N 35°17' E 139°41'0 0.0
2017-Jan-23 06:33N 35°17' E 139°41'0 0.0
2017-Jan-23 05:33N 35°17' E 139°41'0 0.0
2017-Jan-23 04:33N 35°17' E 139°41'0 0.0
2017-Jan-23 03:33N 35°17' E 139°41'6 5.6
2017-Jan-23 02:34N 35°23' E 139°42'5 4.5
2017-Jan-23 01:32N 35°18' E 139°44'6 3.1
2017-Jan-22 23:31N 35°12' E 139°46'8 4.0
2017-Jan-22 21:34N 35°19' E 139°41'2 1.7
2017-Jan-22 20:34N 35°17' E 139°41'0 0.0
2017-Jan-22 19:33N 35°17' E 139°41'0 0.0
2017-Jan-22 18:34N 35°17' E 139°41'0 0.0
2017-Jan-22 17:34N 35°17' E 139°41'0 0.0
2017-Jan-22 16:34N 35°17' E 139°41'0 0.0
2017-Jan-22 15:34N 35°17' E 139°41'0 0.0
2017-Jan-22 14:34N 35°17' E 139°41'0 0.0
2017-Jan-22 13:34N 35°17' E 139°41'0 0.0
2017-Jan-22 12:34N 35°17' E 139°41'0 0.0
2017-Jan-22 11:33N 35°17' E 139°41'0 0.0
2017-Jan-22 10:34N 35°17' E 139°41'0 0.0
2017-Jan-22 09:33N 35°17' E 139°41'0 0.0
2017-Jan-22 08:34N 35°17' E 139°41'0 0.0
2017-Jan-22 07:33N 35°17' E 139°41'0 0.0
2017-Jan-22 06:33N 35°17' E 139°41'0 0.0
2017-Jan-22 05:34N 35°17' E 139°41'0 0.0
2017-Jan-22 04:33N 35°17' E 139°41'0 0.0
2017-Jan-22 03:34N 35°17' E 139°41'6 6.4
2017-Jan-22 02:34N 35°22' E 139°45'3 2.9
2017-Jan-22 01:33N 35°20' E 139°44'4 3.6
2017-Jan-22 00:28N 35°17' E 139°41'0 0.0
2017-Jan-21 23:33N 35°17' E 139°41'0 0.0
2017-Jan-21 22:33N 35°17' E 139°41'0 0.0
2017-Jan-21 21:33N 35°17' E 139°41'0 0.0
2017-Jan-21 20:33N 35°17' E 139°41'0 0.0
2017-Jan-21 19:33N 35°17' E 139°41'0 0.0
2017-Jan-21 18:32N 35°17' E 139°41'0 0.0
2017-Jan-21 17:34N 35°17' E 139°41'0 0.0
2017-Jan-21 16:34N 35°17' E 139°41'0 0.0
2017-Jan-21 15:34N 35°17' E 139°41'0 0.0
2017-Jan-21 14:33N 35°17' E 139°41'0 0.0
2017-Jan-21 13:34N 35°17' E 139°41'0 0.0
2017-Jan-21 12:34N 35°17' E 139°41'0 0.0
2017-Jan-21 11:33N 35°17' E 139°41'0 0.0
2017-Jan-21 10:34N 35°17' E 139°41'0 0.0
2017-Jan-21 09:33N 35°17' E 139°41'0 0.0
2017-Jan-21 08:32N 35°17' E 139°41'0 0.0
2017-Jan-21 07:32N 35°17' E 139°41'0 0.0
2017-Jan-21 06:33N 35°17' E 139°41'0 0.0
2017-Jan-21 05:26N 35°17' E 139°41'0 0.0
2017-Jan-21 04:29N 35°17' E 139°41'0 0.0
2017-Jan-21 03:34N 35°17' E 139°41'0 0.0
2017-Jan-21 02:34N 35°17' E 139°41'0 0.0
2017-Jan-21 01:34N 35°17' E 139°41'0 0.0
2017-Jan-21 00:33N 35°17' E 139°41'2 2.4
2017-Jan-20 23:33N 35°19' E 139°41'1 1.1
2017-Jan-20 22:34N 35°19' E 139°40'7 7.2
2017-Jan-20 21:33N 35°13' E 139°46'10 9.9
2017-Jan-20 20:34N 35°23' E 139°41'2 2.4
2017-Jan-20 19:33N 35°20' E 139°42'3 2.9
2017-Jan-20 18:27N 35°17' E 139°41'0 0.0
2017-Jan-20 17:29N 35°17' E 139°41'0 0.0
2017-Jan-20 16:33N 35°17' E 139°41'0 0.0
2017-Jan-20 15:32N 35°17' E 139°41'0 0.0
2017-Jan-20 14:33N 35°17' E 139°41'0 0.0
2017-Jan-20 13:33N 35°17' E 139°41'0 0.0
2017-Jan-20 12:33N 35°17' E 139°41'0 0.0
2017-Jan-20 11:17N 35°17' E 139°41'0 0.0
2017-Jan-20 10:34N 35°17' E 139°41'6 5.4
2017-Jan-20 09:30N 35°13' E 139°46'9 9.2
2017-Jan-20 08:34N 35°21' E 139°42'5 5.0
2017-Jan-20 07:33N 35°26' E 139°42'5 4.8
2017-Jan-20 06:33N 35°22' E 139°45'6 2.9
2017-Jan-20 04:32N 35°17' E 139°42'1 0.8
2017-Jan-20 03:26N 35°17' E 139°41'0 0.0
2017-Jan-20 02:27N 35°17' E 139°41'0 0.0
2017-Jan-20 01:31N 35°17' E 139°41'0 0.0
2017-Jan-20 00:31N 35°17' E 139°41'0 0.0
2017-Jan-19 23:14N 35°17' E 139°41'0 0.0
2017-Jan-19 22:33N 35°17' E 139°41'0 0.0
2017-Jan-19 21:33N 35°17' E 139°41'0 0.0
2017-Jan-19 20:33N 35°17' E 139°41'0 0.0
2017-Jan-19 19:33N 35°17' E 139°41'0 0.0
2017-Jan-19 18:33N 35°17' E 139°41'0 0.0
2017-Jan-19 17:33N 35°17' E 139°41'0 0.0
2017-Jan-19 16:33N 35°17' E 139°41'0 0.0
2017-Jan-19 15:33N 35°17' E 139°41'0 0.0
2017-Jan-19 14:33N 35°17' E 139°41'0 0.0
2017-Jan-19 13:33N 35°17' E 139°41'0 0.0
2017-Jan-19 12:33N 35°17' E 139°41'0 0.0
2017-Jan-19 11:33N 35°17' E 139°41'0 0.0
2017-Jan-19 10:33N 35°17' E 139°41'0 0.0
2017-Jan-19 09:33N 35°17' E 139°41'0 0.0
2017-Jan-19 08:33N 35°17' E 139°41'0 0.0
2017-Jan-19 07:33N 35°17' E 139°41'0 0.0
2017-Jan-19 06:33N 35°17' E 139°41'0 0.0
2017-Jan-19 05:33N 35°17' E 139°41'0 0.0
2017-Jan-19 04:33N 35°17' E 139°41'0 0.0
2017-Jan-19 03:33N 35°17' E 139°41'6 5.6
2017-Jan-19 02:33N 35°14' E 139°46'1110.7
2017-Jan-19 01:33N 35°24' E 139°43'4 3.9
2017-Jan-19 00:33N 35°28' E 139°44'1 0.7
2017-Jan-18 23:33N 35°28' E 139°44'0 0.0
2017-Jan-18 22:33N 35°28' E 139°44'1110.8
2017-Jan-18 21:33N 35°17' E 139°45'3 2.6
2017-Jan-18 20:17N 35°14' E 139°46'5 7.2
2017-Jan-18 19:33N 35°17' E 139°41'0 0.0
2017-Jan-18 18:33N 35°17' E 139°41'0 0.0
2017-Jan-18 17:33N 35°17' E 139°41'0 0.0
2017-Jan-18 16:33N 35°17' E 139°41'0 0.0
2017-Jan-18 15:33N 35°17' E 139°41'0 0.0
2017-Jan-18 14:33N 35°17' E 139°41'0 0.0
2017-Jan-18 13:33N 35°17' E 139°41'0 0.0
2017-Jan-18 12:33N 35°17' E 139°41'8 8.2
2017-Jan-18 11:33N 35°24' E 139°46'7 6.7
2017-Jan-18 10:33N 35°17' E 139°45'5 1.1
2017-Jan-18 06:31N 35°13' E 139°43'6 6.1
2017-Jan-18 05:33N 35°19' E 139°43'3 3.4
2017-Jan-18 04:33N 35°22' E 139°41'8 8.2
2017-Jan-18 03:33N 35°15' E 139°46'1010.3
2017-Jan-18 02:33N 35°24' E 139°40'2 1.8
2017-Jan-18 01:34N 35°24' E 139°38'0 0.1
2017-Jan-18 00:33N 35°24' E 139°38'7 7.1
2017-Jan-17 23:33N 35°17' E 139°41'0 0.2
2017-Jan-17 22:33N 35°17' E 139°41'0 0.0
2017-Jan-17 21:33N 35°17' E 139°41'0 0.0
2017-Jan-17 20:33N 35°17' E 139°41'0 0.0
2017-Jan-17 19:33N 35°17' E 139°41'0 0.0
2017-Jan-17 18:33N 35°17' E 139°41'0 0.0
2017-Jan-17 17:33N 35°17' E 139°41'0 0.0
2017-Jan-17 16:33N 35°17' E 139°41'0 0.0
2017-Jan-17 15:33N 35°17' E 139°41'0 0.0
2017-Jan-17 14:33N 35°17' E 139°41'0 0.0
2017-Jan-17 13:33N 35°17' E 139°41'0 0.0
2017-Jan-17 12:33N 35°17' E 139°41'0 0.0
2017-Jan-17 11:33N 35°17' E 139°41'0 0.0
2017-Jan-17 10:33N 35°17' E 139°41'0 0.0
2017-Jan-17 09:33N 35°17' E 139°41'0 0.0
2017-Jan-17 08:33N 35°17' E 139°41'0 0.0
2017-Jan-17 07:33N 35°17' E 139°41'0 0.0
2017-Jan-17 06:32N 35°17' E 139°41'0 0.0
2017-Jan-17 05:32N 35°17' E 139°41'7 7.4
2017-Jan-17 04:33N 35°23' E 139°46'9 8.9
2017-Jan-17 03:34N 35°14' E 139°47'1 0.8
2017-Jan-17 02:16N 35°14' E 139°46'710.3
2017-Jan-17 01:33N 35°21' E 139°42'8 2.6
2017-Jan-16 22:33N 35°13' E 139°43'3 2.6
2017-Jan-16 21:29N 35°14' E 139°46'1010.6
2017-Jan-16 20:33N 35°23' E 139°42'6 5.9
2017-Jan-16 19:32N 35°17' E 139°41'0 0.0
2017-Jan-16 18:30N 35°17' E 139°41'0 0.0
2017-Jan-16 17:33N 35°17' E 139°41'0 0.0
2017-Jan-16 16:30N 35°17' E 139°41'0 0.0
2017-Jan-16 15:33N 35°17' E 139°41'0 0.0
2017-Jan-16 14:32N 35°17' E 139°41'0 0.0
2017-Jan-16 13:09N 35°17' E 139°41'0 0.0
2017-Jan-16 12:32N 35°17' E 139°41'0 0.0
2017-Jan-16 11:14N 35°17' E 139°41'0 0.0
2017-Jan-16 10:27N 35°17' E 139°41'2 1.9
2017-Jan-16 09:33N 35°18' E 139°43'4 2.1
2017-Jan-16 07:33N 35°13' E 139°43'7 6.8
2017-Jan-16 06:33N 35°20' E 139°42'6 5.5
2017-Jan-16 05:33N 35°23' E 139°48'1 1.5
2017-Jan-16 04:33N 35°21' E 139°49'7 6.7
2017-Jan-16 03:34N 35°22' E 139°41'0 0.1
2017-Jan-16 02:33N 35°21' E 139°41'1310.1
2017-Jan-16 01:17N 35°09' E 139°46'9 9.2
2017-Jan-16 00:20N 35°18' E 139°43'2 2.7
2017-Jan-15 23:33N 35°17' E 139°41'0 0.0
2017-Jan-15 22:33N 35°17' E 139°41'0 0.0
2017-Jan-15 21:33N 35°17' E 139°41'0 0.0
2017-Jan-15 20:33N 35°17' E 139°41'0 0.0
2017-Jan-15 19:32N 35°17' E 139°41'0 0.0
2017-Jan-15 18:33N 35°17' E 139°41'0 0.0
2017-Jan-15 17:33N 35°17' E 139°41'0 0.0
2017-Jan-15 16:33N 35°17' E 139°41'0 0.0
2017-Jan-15 15:33N 35°17' E 139°41'0 0.0
2017-Jan-15 14:33N 35°17' E 139°41'0 0.0
2017-Jan-15 13:33N 35°17' E 139°41'0 0.0
2017-Jan-15 12:33N 35°17' E 139°41'0 0.0
2017-Jan-15 11:33N 35°17' E 139°41'0 0.0
2017-Jan-15 10:33N 35°17' E 139°41'0 0.0
2017-Jan-15 09:33N 35°17' E 139°41'0 0.0
2017-Jan-15 08:33N 35°17' E 139°41'0 0.0
2017-Jan-15 07:33N 35°17' E 139°41'0 0.0
2017-Jan-15 06:33N 35°17' E 139°41'0 0.0
2017-Jan-15 05:33N 35°17' E 139°41'0 0.0
2017-Jan-15 04:33N 35°17' E 139°41'6 5.6
2017-Jan-15 03:33N 35°22' E 139°43'6 6.4
2017-Jan-15 02:33N 35°16' E 139°46'4 3.3
2017-Jan-15 01:26N 35°13' E 139°43'0 0.3
2017-Jan-15 00:32N 35°13' E 139°43'3 2.8
2017-Jan-14 23:31N 35°13' E 139°46'1111.7
2017-Jan-14 22:34N 35°24' E 139°43'4 3.8
2017-Jan-14 21:34N 35°28' E 139°45'7 6.9
2017-Jan-14 20:34N 35°21' E 139°41'4 4.1
2017-Jan-14 19:29N 35°17' E 139°41'0 0.0
2017-Jan-14 17:33N 35°17' E 139°41'0 0.0
2017-Jan-14 16:23N 35°17' E 139°41'0 0.0
2017-Jan-14 15:26N 35°17' E 139°41'0 0.0
2017-Jan-14 10:13N 35°17' E 139°41'6 9.3
2017-Jan-14 09:34N 35°23' E 139°42'5 5.4
2017-Jan-14 08:33N 35°18' E 139°45'6 5.3
2017-Jan-14 07:22N 35°12' E 139°47'810.5
2017-Jan-14 06:33N 35°20' E 139°43'5 5.3
2017-Jan-14 05:33N 35°22' E 139°49'1 0.5
2017-Jan-14 04:33N 35°21' E 139°49'  

Dump ship's entire track history